Time;durP1;ratioP1;P1;durP2;ratioP2;P2;SDS_P1;SDS_P2;PMS_P1;PMS_P2;Temp;Humidity;BMP_temperature;BMP_pressure;BME280_temperature;BME280_humidity;BME280_pressure;Samples;Min_cycle;Max_cycle;Signal;HPM_P1;HPM_P2
2021/12/18 00:01:08;;;;;;;15.03;11.87;;;6.30;99.90;;;;;;5034599;28;20209;-56
2021/12/18 00:03:34;;;;;;;15.30;12.20;;;6.30;99.90;;;;;;5034662;28;20668;-59
2021/12/18 00:06:02;;;;;;;15.87;12.60;;;6.30;99.90;;;;;;5034537;28;20203;-56
2021/12/18 00:08:30;;;;;;;16.70;12.80;;;6.20;99.90;;;;;;5034927;28;20210;-55
2021/12/18 00:10:57;;;;;;;17.13;13.20;;;6.30;99.90;;;;;;5034676;28;20264;-58
2021/12/18 00:13:24;;;;;;;15.43;12.10;;;6.20;99.90;;;;;;5034711;28;20234;-55
2021/12/18 00:15:51;;;;;;;17.23;13.00;;;6.10;99.90;;;;;;5034788;28;20209;-55
2021/12/18 00:18:18;;;;;;;17.93;13.50;;;6.00;99.90;;;;;;5034901;28;20206;-55
2021/12/18 00:20:45;;;;;;;16.27;12.13;;;6.00;99.90;;;;;;5034295;28;20239;-55
2021/12/18 00:23:12;;;;;;;16.93;13.00;;;6.00;99.90;;;;;;5034901;28;20234;-56
2021/12/18 00:25:40;;;;;;;17.10;12.83;;;6.10;99.90;;;;;;5034895;28;20399;-56
2021/12/18 00:28:08;;;;;;;17.17;12.73;;;5.90;99.90;;;;;;5034749;28;20217;-55
2021/12/18 00:30:35;;;;;;;17.10;13.17;;;5.90;99.90;;;;;;5034669;28;20244;-56
2021/12/18 00:33:02;;;;;;;16.83;12.87;;;5.90;99.90;;;;;;5034123;28;20226;-56
2021/12/18 00:35:29;;;;;;;15.63;12.73;;;6.00;99.90;;;;;;5034721;28;20237;-55
2021/12/18 00:37:56;;;;;;;17.23;13.07;;;6.00;99.90;;;;;;5034306;28;20210;-56
2021/12/18 00:40:25;;;;;;;18.13;13.07;;;5.90;99.90;;;;;;5034593;28;20210;-55
2021/12/18 00:42:59;;;;;;;17.43;12.27;;;5.90;99.90;;;;;;5034011;28;20284;-56
2021/12/18 00:45:28;;;;;;;16.83;12.67;;;5.80;99.90;;;;;;5034181;28;20217;-57
2021/12/18 00:47:56;;;;;;;15.30;11.90;;;5.80;99.90;;;;;;5034001;28;20214;-56
2021/12/18 00:50:25;;;;;;;17.07;13.20;;;5.70;99.90;;;;;;5034238;28;20205;-57
2021/12/18 00:52:52;;;;;;;16.67;12.43;;;5.70;99.90;;;;;;5033881;28;20218;-58
2021/12/18 00:55:21;;;;;;;19.17;14.03;;;5.70;99.90;;;;;;5034049;28;20213;-56
2021/12/18 00:57:48;;;;;;;17.30;13.53;;;5.60;99.90;;;;;;5033959;28;20210;-57
2021/12/18 01:00:22;;;;;;;16.90;12.80;;;5.70;99.90;;;;;;5033836;28;20206;-57
2021/12/18 01:02:50;;;;;;;15.10;12.13;;;5.70;99.90;;;;;;5033589;28;20269;-57
2021/12/18 01:05:17;;;;;;;18.63;13.50;;;5.70;99.90;;;;;;5033944;28;20230;-57
2021/12/18 01:07:43;;;;;;;17.00;12.73;;;5.70;99.90;;;;;;5033753;28;20306;-56
2021/12/18 01:10:26;;;;;;;16.97;13.33;;;5.60;99.90;;;;;;5033918;28;20209;-56
2021/12/18 01:12:56;;;;;;;15.53;12.50;;;5.60;99.90;;;;;;5033601;28;20234;-57
2021/12/18 01:15:29;;;;;;;16.40;12.60;;;5.70;99.90;;;;;;5033789;28;20225;-57
2021/12/18 01:23:25;;;;;;;19.27;14.13;;;5.70;99.90;;;;;;5033571;28;20271;-58
2021/12/18 01:25:54;;;;;;;18.23;13.07;;;5.60;99.90;;;;;;5033477;28;20703;-56
2021/12/18 01:28:21;;;;;;;18.60;13.73;;;5.60;99.90;;;;;;5033696;28;20206;-57
2021/12/18 01:30:50;;;;;;;17.83;13.57;;;5.60;99.90;;;;;;5033156;28;20214;-57
2021/12/18 01:33:17;;;;;;;18.07;12.97;;;5.60;99.90;;;;;;5033111;28;20226;-56
2021/12/18 01:35:44;;;;;;;18.47;14.10;;;5.60;99.90;;;;;;5032974;28;20588;-57
2021/12/18 01:38:11;;;;;;;17.77;13.17;;;5.70;99.90;;;;;;5033376;28;20206;-56
2021/12/18 01:40:38;;;;;;;17.43;13.70;;;5.70;99.90;;;;;;5033197;28;20207;-57
2021/12/18 01:51:33;;;;;;;17.57;13.47;;;5.60;99.90;;;;;;5032754;28;20333;-57
2021/12/18 01:54:01;;;;;;;18.30;13.60;;;5.60;99.90;;;;;;5032664;28;20693;-57
2021/12/18 01:56:28;;;;;;;18.33;13.53;;;5.60;99.90;;;;;;5032720;28;20208;-57
2021/12/18 01:58:55;;;;;;;17.17;13.70;;;5.60;99.90;;;;;;5032901;28;20217;-58
2021/12/18 02:01:23;;;;;;;19.07;14.57;;;5.60;99.90;;;;;;5032699;28;20213;-57
2021/12/18 02:03:50;;;;;;;18.07;13.87;;;5.50;99.90;;;;;;5032463;28;20230;-58
2021/12/18 02:06:17;;;;;;;19.33;14.17;;;5.60;99.90;;;;;;5032607;28;20674;-56
2021/12/18 02:08:45;;;;;;;20.40;14.40;;;5.70;99.90;;;;;;5032595;28;20202;-59
2021/12/18 02:11:23;;;;;;;18.90;13.77;;;5.80;99.90;;;;;;5032384;28;20578;-56
2021/12/18 02:19:48;;;;;;;19.67;13.63;;;6.00;99.90;;;;;;5032464;28;20728;-56
2021/12/18 02:22:17;;;;;;;19.23;13.40;;;6.10;99.90;;;;;;5032555;28;20222;-56
2021/12/18 02:24:44;;;;;;;17.53;13.30;;;6.00;99.90;;;;;;5032352;28;20206;-56
2021/12/18 02:27:11;;;;;;;18.37;14.30;;;6.00;99.90;;;;;;5032432;28;20209;-57
2021/12/18 02:29:39;;;;;;;19.23;14.70;;;5.90;99.90;;;;;;5032139;28;20582;-57
2021/12/18 02:32:08;;;;;;;16.87;13.27;;;5.90;99.90;;;;;;5032265;28;20206;-56
2021/12/18 02:34:37;;;;;;;18.30;13.23;;;5.90;99.90;;;;;;5032331;28;20225;-58
2021/12/18 02:37:06;;;;;;;17.03;12.10;;;5.80;99.90;;;;;;5032300;28;20229;-56
2021/12/18 02:39:57;;;;;;;16.33;12.23;;;5.60;99.90;;;;;;5032619;28;20562;-57
2021/12/18 02:42:24;;;;;;;17.27;12.10;;;5.60;99.90;;;;;;5031808;28;20221;-56
2021/12/18 02:44:53;;;;;;;16.13;12.23;;;5.50;99.90;;;;;;5031936;28;20670;-58
2021/12/18 02:47:20;;;;;;;16.97;11.53;;;5.40;99.90;;;;;;5032162;28;20232;-56
2021/12/18 02:49:49;;;;;;;16.77;12.43;;;5.40;99.90;;;;;;5032273;28;20623;-56
2021/12/18 02:52:17;;;;;;;16.77;12.23;;;5.20;99.90;;;;;;5031770;28;20229;-56
2021/12/18 02:54:46;;;;;;;16.87;12.13;;;5.20;99.90;;;;;;5031878;28;20222;-57
2021/12/18 02:57:14;;;;;;;17.00;12.27;;;5.20;99.90;;;;;;5032131;28;20222;-56
2021/12/18 02:59:45;;;;;;;17.13;12.43;;;5.10;99.90;;;;;;5032132;28;20448;-57
2021/12/18 03:02:13;;;;;;;17.13;12.43;;;5.00;99.90;;;;;;5031754;28;20202;-56
2021/12/18 03:04:42;;;;;;;15.97;11.93;;;5.10;99.90;;;;;;5031844;28;20198;-57
2021/12/18 03:07:11;;;;;;;17.13;12.87;;;5.20;99.90;;;;;;5031834;28;20271;-56
2021/12/18 03:18:59;;;;;;;15.53;11.73;;;5.20;99.90;;;;;;5031862;28;20210;-57
2021/12/18 03:23:44;;;;;;;15.93;11.77;;;5.30;99.90;;;;;;5023387;28;20213;-55
2021/12/18 03:26:13;;;;;;;17.13;12.00;;;5.20;99.90;;;;;;5032284;28;20214;-56
2021/12/18 03:28:41;;;;;;;15.03;11.23;;;5.20;99.90;;;;;;5032118;28;20213;-58
2021/12/18 03:31:08;;;;;;;15.20;11.33;;;5.10;99.90;;;;;;5031959;28;20230;-57
2021/12/18 03:33:35;;;;;;;16.10;11.40;;;5.00;99.90;;;;;;5035291;28;20222;-55
2021/12/18 03:36:02;;;;;;;14.43;11.13;;;5.00;99.90;;;;;;5035918;28;20203;-58
2021/12/18 03:38:29;;;;;;;14.83;11.13;;;4.90;99.90;;;;;;5035867;28;20206;-55
2021/12/18 03:40:56;;;;;;;14.43;10.80;;;4.80;99.90;;;;;;5035993;28;20701;-56
2021/12/18 03:43:22;;;;;;;15.13;10.93;;;4.80;99.90;;;;;;5035862;28;20230;-56
2021/12/18 03:45:51;;;;;;;16.77;11.13;;;4.80;99.90;;;;;;5035747;28;20198;-57
2021/12/18 03:48:17;;;;;;;16.40;10.87;;;4.80;99.90;;;;;;5035410;28;20214;-57
2021/12/18 03:50:46;;;;;;;16.93;12.20;;;4.70;99.90;;;;;;5035689;28;20202;-59
2021/12/18 03:53:13;;;;;;;16.57;12.07;;;4.70;99.90;;;;;;5035220;28;20717;-56
2021/12/18 03:55:40;;;;;;;16.73;11.70;;;4.80;99.90;;;;;;5035289;28;20226;-56
2021/12/18 03:58:07;;;;;;;15.07;11.30;;;4.80;99.90;;;;;;5035494;28;20210;-56
2021/12/18 04:00:33;;;;;;;13.40;10.43;;;5.00;99.90;;;;;;5035480;28;20229;-57
2021/12/18 04:03:01;;;;;;;16.27;11.60;;;5.10;99.90;;;;;;5034877;28;20744;-56
2021/12/18 04:05:28;;;;;;;13.63;10.67;;;5.20;99.90;;;;;;5035466;28;20202;-56
2021/12/18 04:08:08;;;;;;;14.73;10.63;;;5.20;99.90;;;;;;5035236;28;20214;-57
2021/12/18 04:10:36;;;;;;;15.13;11.40;;;5.20;99.90;;;;;;5035339;28;20217;-57
2021/12/18 04:13:02;;;;;;;13.67;10.93;;;5.30;99.90;;;;;;5034973;28;20245;-56
2021/12/18 04:15:29;;;;;;;14.53;9.97;;;5.30;99.90;;;;;;5034777;28;20230;-57
2021/12/18 04:17:56;;;;;;;16.27;11.53;;;5.40;99.90;;;;;;5034955;28;20678;-57
2021/12/18 04:20:25;;;;;;;13.87;10.93;;;5.50;99.90;;;;;;5035382;28;20203;-58
2021/12/18 04:22:52;;;;;;;14.00;10.57;;;5.50;99.90;;;;;;5034811;28;20226;-56
2021/12/18 04:25:19;;;;;;;16.27;11.60;;;5.50;99.90;;;;;;5034738;28;20206;-55
2021/12/18 04:27:46;;;;;;;15.10;11.17;;;5.50;99.90;;;;;;5034760;28;20242;-56
2021/12/18 04:30:13;;;;;;;14.77;11.33;;;5.40;99.90;;;;;;5034978;28;20206;-56
2021/12/18 04:32:40;;;;;;;14.47;10.73;;;5.30;99.90;;;;;;5034788;28;20222;-57
2021/12/18 04:35:07;;;;;;;15.37;11.30;;;5.30;99.90;;;;;;5034585;28;20733;-55
2021/12/18 04:37:35;;;;;;;15.97;11.37;;;5.30;99.90;;;;;;5034998;28;20213;-56
2021/12/18 04:40:03;;;;;;;16.63;10.70;;;5.30;99.90;;;;;;5034842;28;20207;-56
2021/12/18 04:42:30;;;;;;;15.20;11.03;;;5.40;99.90;;;;;;5033924;28;20213;-57
2021/12/18 04:44:57;;;;;;;14.90;10.63;;;5.50;99.90;;;;;;5034726;28;20585;-56
2021/12/18 04:47:24;;;;;;;15.83;11.10;;;5.60;99.90;;;;;;5034319;28;20211;-57
2021/12/18 04:49:50;;;;;;;16.73;11.20;;;5.60;99.90;;;;;;5034483;28;20210;-57
2021/12/18 04:52:17;;;;;;;15.13;11.07;;;5.60;99.90;;;;;;5034310;28;20264;-57
2021/12/18 04:54:45;;;;;;;15.73;10.40;;;5.60;99.90;;;;;;5034092;28;20268;-59
2021/12/18 04:57:12;;;;;;;15.03;11.13;;;5.50;99.90;;;;;;5034076;28;20207;-59
2021/12/18 04:59:43;;;;;;;14.93;10.53;;;5.60;99.90;;;;;;5033947;28;20268;-57
2021/12/18 05:02:13;;;;;;;15.30;10.90;;;5.60;99.90;;;;;;5033648;28;20763;-58
2021/12/18 05:04:39;;;;;;;16.80;10.70;;;5.60;99.90;;;;;;5034437;28;20203;-56
2021/12/18 05:07:06;;;;;;;16.67;11.47;;;5.50;99.90;;;;;;5033824;28;20213;-58
2021/12/18 05:09:33;;;;;;;21.73;16.70;;;5.50;99.90;;;;;;5033815;28;20202;-57
2021/12/18 05:12:01;;;;;;;16.23;11.83;;;5.50;99.90;;;;;;5033529;28;20210;-54
2021/12/18 05:14:27;;;;;;;15.43;11.73;;;5.50;99.90;;;;;;5033551;28;20397;-55
2021/12/18 05:16:54;;;;;;;20.70;16.03;;;5.50;99.90;;;;;;5033532;28;20214;-57
2021/12/18 05:19:21;;;;;;;15.00;11.40;;;5.60;99.90;;;;;;5033670;28;20206;-55
2021/12/18 05:21:48;;;;;;;14.33;10.73;;;5.60;99.90;;;;;;5033413;28;20214;-55
2021/12/18 05:24:15;;;;;;;13.80;10.07;;;5.60;99.90;;;;;;5033425;28;20318;-55
2021/12/18 05:26:41;;;;;;;12.67;9.10;;;5.50;99.90;;;;;;5033626;28;20210;-56
2021/12/18 05:29:09;;;;;;;14.80;9.70;;;5.40;99.90;;;;;;5033621;28;20206;-56
2021/12/18 05:31:36;;;;;;;17.27;9.77;;;5.30;99.90;;;;;;5033394;28;20217;-56
2021/12/18 05:34:04;;;;;;;14.40;9.70;;;5.30;99.90;;;;;;5033507;28;20233;-56
2021/12/18 05:36:35;;;;;;;15.53;10.13;;;5.20;99.90;;;;;;5033289;28;20262;-56
2021/12/18 05:39:05;;;;;;;12.57;9.33;;;5.20;99.90;;;;;;5033419;28;20237;-56
2021/12/18 05:41:32;;;;;;;13.90;9.43;;;5.20;99.90;;;;;;5033335;28;20272;-56
2021/12/18 05:43:59;;;;;;;13.13;9.77;;;5.20;99.90;;;;;;5033499;28;20237;-57
2021/12/18 05:46:27;;;;;;;13.63;9.90;;;5.30;99.90;;;;;;5033863;28;20206;-58
2021/12/18 05:48:54;;;;;;;14.53;10.07;;;5.30;99.90;;;;;;5033500;28;20203;-58
2021/12/18 05:51:21;;;;;;;15.37;11.50;;;5.30;99.90;;;;;;5033239;28;20635;-57
2021/12/18 05:53:48;;;;;;;12.80;9.40;;;5.40;99.90;;;;;;5033209;28;20237;-56
2021/12/18 05:56:15;;;;;;;13.97;9.33;;;5.50;99.90;;;;;;5032435;28;20238;-55
2021/12/18 05:58:43;;;;;;;13.97;9.47;;;5.50;99.90;;;;;;5033124;28;20206;-56
2021/12/18 06:01:12;;;;;;;13.40;9.60;;;5.40;99.90;;;;;;5032876;28;20206;-55
2021/12/18 06:03:40;;;;;;;11.70;8.50;;;5.40;99.90;;;;;;5032704;28;20238;-55
2021/12/18 06:06:07;;;;;;;13.93;8.67;;;5.30;99.90;;;;;;5032935;28;20217;-55
2021/12/18 06:08:35;;;;;;;12.40;8.50;;;5.20;99.90;;;;;;5032693;28;20259;-56
2021/12/18 06:11:07;;;;;;;10.80;8.30;;;5.20;99.90;;;;;;5033155;28;20206;-56
2021/12/18 06:13:34;;;;;;;11.33;7.67;;;5.10;99.90;;;;;;5032544;28;20237;-56
2021/12/18 06:16:01;;;;;;;10.27;8.00;;;5.10;99.90;;;;;;5032453;28;20230;-55
2021/12/18 06:18:28;;;;;;;10.50;7.63;;;5.10;99.90;;;;;;5032511;28;20220;-56
2021/12/18 06:20:56;;;;;;;11.70;8.53;;;5.10;99.90;;;;;;5032451;28;20206;-56
2021/12/18 06:23:22;;;;;;;11.07;7.87;;;5.20;99.90;;;;;;5032033;28;20238;-57
2021/12/18 06:25:49;;;;;;;10.47;7.43;;;5.30;99.90;;;;;;5032593;28;20197;-55
2021/12/18 06:28:16;;;;;;;10.63;7.57;;;5.30;99.90;;;;;;5032587;28;20208;-56
2021/12/18 06:30:43;;;;;;;10.27;7.17;;;5.30;99.90;;;;;;5032386;28;20206;-57
2021/12/18 06:33:10;;;;;;;10.87;8.07;;;5.40;99.90;;;;;;5031984;28;20867;-55
2021/12/18 06:35:37;;;;;;;18.13;12.50;;;5.40;99.90;;;;;;5032096;28;20226;-56
2021/12/18 06:38:05;;;;;;;9.80;7.67;;;5.50;99.90;;;;;;5032204;28;20206;-56
2021/12/18 06:40:32;;;;;;;14.70;10.43;;;5.60;99.90;;;;;;5032346;28;20252;-55
2021/12/18 06:42:59;;;;;;;13.00;8.77;;;5.60;99.90;;;;;;5031960;28;20325;-56
2021/12/18 06:45:26;;;;;;;13.77;8.73;;;5.70;99.90;;;;;;5032295;28;20202;-56
2021/12/18 06:47:53;;;;;;;11.83;9.13;;;5.80;99.90;;;;;;5032121;28;20305;-56
2021/12/18 06:50:20;;;;;;;11.60;8.57;;;5.90;99.90;;;;;;5032051;28;20210;-56
2021/12/18 06:52:47;;;;;;;11.03;8.40;;;5.90;99.90;;;;;;5031659;28;20232;-56
2021/12/18 06:55:16;;;;;;;11.80;8.53;;;6.00;99.90;;;;;;5031890;28;20694;-57
2021/12/18 06:57:43;;;;;;;12.43;8.60;;;6.00;99.90;;;;;;5031993;28;20206;-57
2021/12/18 07:00:13;;;;;;;10.73;7.77;;;6.00;99.90;;;;;;5032039;28;20256;-55
2021/12/18 07:02:40;;;;;;;10.17;7.87;;;6.00;99.90;;;;;;5031565;28;20247;-57
2021/12/18 07:05:08;;;;;;;10.87;8.47;;;6.00;99.90;;;;;;5031982;28;20202;-57
2021/12/18 07:07:35;;;;;;;12.17;8.63;;;6.10;99.90;;;;;;5035560;28;20229;-57
2021/12/18 07:10:03;;;;;;;12.07;8.07;;;6.20;99.90;;;;;;5036140;28;20631;-57
2021/12/18 07:12:31;;;;;;;10.63;8.00;;;6.20;99.90;;;;;;5035633;28;20564;-56
2021/12/18 07:14:58;;;;;;;11.93;8.57;;;6.30;99.90;;;;;;5036225;28;20205;-57
2021/12/18 07:17:25;;;;;;;13.07;9.23;;;6.30;99.90;;;;;;5035672;28;20201;-57
2021/12/18 07:19:51;;;;;;;11.50;7.93;;;6.40;99.90;;;;;;5036049;28;20219;-57
2021/12/18 07:22:18;;;;;;;11.43;8.07;;;6.40;99.90;;;;;;5035521;28;20210;-56
2021/12/18 07:24:45;;;;;;;13.27;8.63;;;6.40;99.90;;;;;;5035764;28;20213;-56
2021/12/18 07:27:11;;;;;;;12.00;8.80;;;6.40;99.90;;;;;;5035684;28;20202;-57
2021/12/18 07:29:39;;;;;;;12.70;8.27;;;6.30;99.90;;;;;;5035457;28;20605;-56
2021/12/18 07:32:07;;;;;;;10.07;7.70;;;6.30;99.90;;;;;;5035505;28;20264;-57
2021/12/18 07:34:34;;;;;;;13.57;8.93;;;6.30;99.90;;;;;;5035546;28;20249;-56
2021/12/18 07:37:01;;;;;;;11.20;8.40;;;6.40;99.90;;;;;;5035504;28;20226;-56
2021/12/18 07:39:28;;;;;;;11.33;8.37;;;6.40;99.90;;;;;;5035415;28;20260;-57
2021/12/18 07:41:55;;;;;;;11.77;7.83;;;6.40;99.90;;;;;;5035231;28;20652;-56
2021/12/18 07:44:21;;;;;;;13.97;9.20;;;6.40;99.90;;;;;;5035122;28;20230;-56
2021/12/18 07:46:49;;;;;;;12.27;9.07;;;6.40;99.90;;;;;;5035248;28;20683;-58
2021/12/18 07:49:16;;;;;;;13.70;7.77;;;6.40;99.90;;;;;;5035378;28;20581;-58
2021/12/18 07:51:43;;;;;;;12.00;8.03;;;6.40;99.90;;;;;;5035165;28;20217;-57
2021/12/18 07:54:10;;;;;;;11.87;8.37;;;6.40;99.90;;;;;;5034831;28;20238;-56
2021/12/18 07:56:36;;;;;;;10.67;7.53;;;6.30;99.90;;;;;;5034981;28;20272;-57
2021/12/18 07:59:04;;;;;;;14.07;8.33;;;6.20;99.90;;;;;;5034961;28;20583;-56
2021/12/18 08:01:30;;;;;;;12.17;8.60;;;6.10;99.90;;;;;;5034613;28;20202;-58
2021/12/18 08:03:58;;;;;;;12.30;8.13;;;6.00;99.90;;;;;;5034631;28;20242;-56
2021/12/18 08:06:25;;;;;;;10.47;7.93;;;6.00;99.90;;;;;;5034929;28;20205;-57
2021/12/18 08:08:52;;;;;;;13.30;8.40;;;6.00;99.90;;;;;;5034857;28;20678;-56
2021/12/18 08:11:18;;;;;;;12.87;9.47;;;6.10;99.90;;;;;;5034724;28;20756;-58
2021/12/18 08:13:45;;;;;;;12.73;9.30;;;6.10;99.90;;;;;;5034309;28;20230;-57
2021/12/18 08:16:12;;;;;;;13.90;9.27;;;6.10;99.90;;;;;;5034617;28;20221;-56
2021/12/18 08:18:39;;;;;;;14.03;9.23;;;6.10;99.90;;;;;;5034143;28;20206;-57
2021/12/18 08:21:07;;;;;;;10.87;8.03;;;6.20;99.90;;;;;;5035022;28;20240;-57
2021/12/18 08:23:33;;;;;;;11.70;8.17;;;6.30;99.90;;;;;;5034383;28;20720;-55
2021/12/18 08:26:00;;;;;;;13.30;8.97;;;6.30;99.90;;;;;;5034615;28;20596;-55
2021/12/18 08:28:27;;;;;;;12.67;8.33;;;6.40;99.90;;;;;;5034901;28;20206;-57
2021/12/18 08:30:54;;;;;;;11.53;8.23;;;6.40;99.90;;;;;;5035258;28;20210;-57
2021/12/18 08:33:20;;;;;;;12.17;8.30;;;6.40;99.90;;;;;;5034692;28;20601;-55
2021/12/18 08:35:47;;;;;;;11.37;8.27;;;6.20;99.90;;;;;;5034437;28;20222;-56
2021/12/18 08:38:15;;;;;;;12.17;8.47;;;6.20;99.90;;;;;;5034221;28;20291;-55
2021/12/18 08:40:42;;;;;;;11.30;8.20;;;6.30;99.90;;;;;;5034495;28;20208;-57
2021/12/18 08:43:09;;;;;;;9.97;7.53;;;6.40;99.90;;;;;;5034212;28;20280;-56
2021/12/18 08:45:37;;;;;;;11.67;8.57;;;6.30;99.90;;;;;;5034400;28;20202;-56
2021/12/18 08:48:04;;;;;;;12.20;8.43;;;6.40;99.90;;;;;;5034328;28;20210;-56
2021/12/18 08:50:31;;;;;;;13.80;8.40;;;6.40;99.90;;;;;;5034320;28;20210;-56
2021/12/18 08:52:58;;;;;;;11.37;8.27;;;6.50;99.90;;;;;;5034131;28;20229;-56
2021/12/18 08:55:26;;;;;;;11.53;8.60;;;6.40;99.90;;;;;;5033935;28;20214;-56
2021/12/18 08:57:53;;;;;;;11.33;8.10;;;6.40;99.90;;;;;;5034024;28;20674;-57
2021/12/18 09:00:22;;;;;;;11.83;8.27;;;6.40;99.90;;;;;;5034054;28;20206;-58
2021/12/18 09:02:52;;;;;;;14.10;9.70;;;6.40;99.90;;;;;;5033728;28;20240;-57
2021/12/18 09:05:18;;;;;;;11.87;8.53;;;6.50;99.90;;;;;;5033904;28;20213;-57
2021/12/18 09:07:45;;;;;;;12.00;8.40;;;6.50;99.90;;;;;;5033678;28;20210;-57
2021/12/18 09:10:14;;;;;;;13.27;8.63;;;6.60;99.90;;;;;;5033883;28;20210;-57
2021/12/18 09:12:43;;;;;;;13.50;8.40;;;6.60;99.90;;;;;;5033520;28;20233;-56
2021/12/18 09:15:11;;;;;;;9.80;6.90;;;6.60;99.90;;;;;;5033738;28;20202;-57
2021/12/18 09:17:38;;;;;;;8.50;6.83;;;6.60;99.90;;;;;;5033419;28;20226;-58
2021/12/18 09:20:06;;;;;;;10.87;7.70;;;6.50;99.90;;;;;;5033333;28;20241;-57
2021/12/18 09:22:32;;;;;;;11.03;7.40;;;6.40;99.90;;;;;;5033231;28;20230;-58
2021/12/18 09:25:00;;;;;;;10.90;8.33;;;6.30;99.90;;;;;;5033595;28;20281;-57
2021/12/18 09:27:27;;;;;;;12.10;8.00;;;6.40;99.90;;;;;;5033473;28;20261;-59
2021/12/18 09:29:55;;;;;;;10.40;7.80;;;6.60;99.90;;;;;;5032378;28;20210;-57
2021/12/18 09:32:22;;;;;;;12.70;7.50;;;6.80;99.90;;;;;;5033221;28;20214;-58
2021/12/18 09:34:49;;;;;;;10.57;7.73;;;6.90;99.90;;;;;;5033014;28;20245;-58
2021/12/18 09:37:15;;;;;;;12.33;7.73;;;7.00;99.90;;;;;;5033481;28;20600;-57
2021/12/18 09:39:42;;;;;;;10.37;7.60;;;7.00;99.90;;;;;;5033191;28;20214;-57
2021/12/18 09:42:09;;;;;;;11.40;7.87;;;6.90;99.90;;;;;;5032822;28;20549;-59
2021/12/18 09:44:36;;;;;;;9.77;7.30;;;6.70;99.90;;;;;;5032952;28;20222;-56
2021/12/18 09:47:05;;;;;;;10.60;7.20;;;6.50;99.90;;;;;;5032823;28;20202;-56
2021/12/18 09:49:32;;;;;;;9.67;6.90;;;6.70;99.90;;;;;;5032769;28;20221;-57
2021/12/18 09:51:59;;;;;;;9.40;7.03;;;6.60;99.90;;;;;;5032593;28;20213;-55
2021/12/18 09:54:26;;;;;;;10.27;8.10;;;6.70;99.90;;;;;;5032855;28;20237;-63
2021/12/18 09:56:53;;;;;;;9.70;7.20;;;6.70;99.90;;;;;;5032581;28;20702;-54
2021/12/18 09:59:21;;;;;;;10.53;7.60;;;6.80;99.90;;;;;;5032651;28;20608;-54
2021/12/18 10:01:48;;;;;;;10.13;6.87;;;6.80;99.90;;;;;;5032504;28;20202;-55
2021/12/18 10:04:28;;;;;;;11.50;7.10;;;6.90;99.90;;;;;;5032755;28;20790;-54
2021/12/18 10:06:57;;;;;;;9.53;6.93;;;7.00;99.90;;;;;;5032916;28;20198;-54
2021/12/18 10:09:34;;;;;;;10.23;7.67;;;7.00;99.90;;;;;;5032940;28;20264;-53
2021/12/18 10:12:06;;;;;;;10.73;7.63;;;7.10;99.90;;;;;;5032818;28;20213;-54
2021/12/18 10:14:35;;;;;;;12.03;8.03;;;7.20;99.90;;;;;;5032432;28;20230;-53
2021/12/18 10:17:03;;;;;;;10.80;8.30;;;7.30;99.90;;;;;;5032544;28;20230;-54
2021/12/18 10:19:33;;;;;;;10.07;7.30;;;7.20;99.90;;;;;;5032780;28;20257;-55
2021/12/18 10:22:02;;;;;;;11.87;8.00;;;7.20;99.90;;;;;;5032274;28;20206;-54
2021/12/18 10:24:29;;;;;;;11.00;7.87;;;7.20;99.90;;;;;;5032250;28;20230;-56
2021/12/18 10:26:56;;;;;;;10.57;7.53;;;7.20;99.90;;;;;;5032492;28;20213;-55
2021/12/18 10:29:27;;;;;;;13.50;8.43;;;7.30;99.90;;;;;;5032579;28;20257;-56
2021/12/18 10:31:54;;;;;;;11.57;7.80;;;7.40;99.90;;;;;;5032428;28;20245;-55
2021/12/18 10:34:24;;;;;;;10.30;8.00;;;7.20;99.90;;;;;;5032335;28;20230;-56
2021/12/18 10:37:19;;;;;;;9.47;6.77;;;7.30;99.90;;;;;;5032363;28;20225;-56
2021/12/18 10:39:57;;;;;;;8.60;6.80;;;7.20;99.90;;;;;;5032302;28;20637;-56
2021/12/18 10:42:26;;;;;;;9.37;6.67;;;7.30;99.90;;;;;;5031446;28;20621;-56
2021/12/18 10:45:14;;;;;;;10.07;7.47;;;7.40;99.90;;;;;;5032165;28;20233;-56
2021/12/18 10:47:59;;;;;;;11.67;7.40;;;7.40;99.90;;;;;;5032100;28;20202;-55
2021/12/18 10:50:30;;;;;;;10.23;7.57;;;7.50;99.90;;;;;;5032090;28;20202;-55
2021/12/18 10:53:03;;;;;;;9.37;7.43;;;7.60;99.90;;;;;;5031865;28;20230;-55
2021/12/18 10:55:36;;;;;;;10.43;7.60;;;7.60;99.90;;;;;;5031819;28;20210;-55
2021/12/18 10:58:05;;;;;;;9.30;7.20;;;7.60;99.90;;;;;;5031602;28;20317;-55
2021/12/18 11:00:51;;;;;;;10.20;7.63;;;7.60;99.90;;;;;;5032018;28;20293;-55
2021/12/18 11:03:31;;;;;;;10.10;7.67;;;7.60;99.90;;;;;;5029049;28;20241;-58
2021/12/18 11:06:12;;;;;;;9.67;7.43;;;7.60;99.90;;;;;;5031875;28;20581;-58
2021/12/18 11:09:11;;;;;;;9.07;6.97;;;7.70;99.90;;;;;;5031606;28;20316;-58
2021/12/18 11:14:36;;;;;;;10.47;7.53;;;7.70;99.90;;;;;;5031841;28;20599;-58
2021/12/18 11:17:05;;;;;;;10.23;7.90;;;7.70;99.90;;;;;;5031526;28;20317;-58
2021/12/18 11:19:33;;;;;;;10.00;7.30;;;7.70;99.90;;;;;;5031590;28;20697;-59
2021/12/18 11:22:01;;;;;;;8.87;7.13;;;7.70;99.90;;;;;;5031703;28;20210;-56
2021/12/18 11:24:35;;;;;;;11.67;8.00;;;7.80;99.90;;;;;;5031410;28;20230;-58
2021/12/18 11:27:05;;;;;;;9.90;7.70;;;7.90;99.90;;;;;;5031613;28;20339;-57
2021/12/18 11:29:40;;;;;;;11.67;7.57;;;7.80;99.90;;;;;;5031430;28;20206;-57
2021/12/18 11:32:09;;;;;;;11.63;8.00;;;7.80;99.90;;;;;;5031346;28;20241;-58
2021/12/18 11:34:37;;;;;;;9.77;7.40;;;7.90;99.90;;;;;;5031573;28;20309;-58
2021/12/18 11:37:07;;;;;;;8.80;6.90;;;7.90;99.90;;;;;;5031366;28;20218;-57
2021/12/18 11:39:36;;;;;;;12.17;8.00;;;7.70;99.90;;;;;;5031895;28;20236;-57
2021/12/18 11:42:04;;;;;;;9.73;7.43;;;7.70;99.90;;;;;;5031203;28;20214;-57
2021/12/18 11:44:35;;;;;;;11.33;7.90;;;7.80;99.90;;;;;;5031375;28;20272;-57
2021/12/18 11:47:27;;;;;;;8.23;6.60;;;8.00;99.90;;;;;;5032111;28;20213;-56
2021/12/18 11:49:57;;;;;;;10.23;7.73;;;8.00;99.90;;;;;;5031328;28;20210;-57
2021/12/18 11:52:25;;;;;;;9.47;7.40;;;8.00;99.90;;;;;;5030961;28;20237;-57
2021/12/18 11:54:56;;;;;;;12.20;8.10;;;7.90;99.90;;;;;;5034997;28;20595;-58
2021/12/18 11:57:44;;;;;;;10.83;8.07;;;7.70;99.90;;;;;;5035021;28;20233;-57
2021/12/18 12:00:34;;;;;;;9.70;7.47;;;7.80;99.90;;;;;;5035218;28;20289;-59
2021/12/18 12:03:02;;;;;;;11.00;8.23;;;7.80;99.90;;;;;;5029460;28;20325;-57
2021/12/18 12:05:35;;;;;;;9.93;8.00;;;7.90;99.90;;;;;;5034899;28;20206;-57
2021/12/18 12:08:29;;;;;;;11.60;8.80;;;8.00;99.90;;;;;;5034891;28;20225;-58
2021/12/18 12:11:15;;;;;;;12.13;9.57;;;8.10;99.90;;;;;;5035041;28;20217;-58
2021/12/18 12:13:58;;;;;;;19.03;11.93;;;8.00;99.90;;;;;;5034601;28;20652;-58
2021/12/18 12:16:59;;;;;;;14.93;11.03;;;7.80;99.90;;;;;;5034735;28;20206;-57
2021/12/18 12:19:56;;;;;;;11.37;8.10;;;7.70;99.90;;;;;;5034622;28;20203;-57
2021/12/18 12:22:42;;;;;;;9.93;7.90;;;7.50;99.90;;;;;;5034851;28;20211;-57
2021/12/18 12:25:12;;;;;;;9.43;7.23;;;7.40;99.90;;;;;;5034657;28;20301;-57
2021/12/18 12:27:42;;;;;;;11.80;8.50;;;7.40;99.90;;;;;;5034404;28;20706;-58
2021/12/18 12:30:11;;;;;;;9.53;7.83;;;7.20;99.90;;;;;;5034676;28;20264;-57
2021/12/18 12:32:39;;;;;;;11.60;8.67;;;7.10;99.90;;;;;;5034284;28;20234;-57
2021/12/18 12:35:08;;;;;;;11.83;7.93;;;7.10;99.90;;;;;;5034941;28;20218;-57
2021/12/18 12:37:37;;;;;;;17.00;11.80;;;7.20;99.90;;;;;;5034523;28;20226;-57
2021/12/18 12:40:09;;;;;;;11.17;8.40;;;7.20;99.90;;;;;;5034388;28;20260;-57
2021/12/18 12:43:01;;;;;;;11.60;8.27;;;7.10;99.90;;;;;;5034369;28;20240;-58
2021/12/18 12:45:37;;;;;;;10.23;8.37;;;7.10;99.90;;;;;;5034195;28;20213;-57
2021/12/18 12:48:04;;;;;;;11.23;8.73;;;7.20;99.90;;;;;;5034339;28;20340;-56
2021/12/18 12:50:33;;;;;;;15.17;9.00;;;7.30;99.90;;;;;;5034041;28;20209;-57
2021/12/18 12:53:01;;;;;;;11.33;9.23;;;7.40;99.90;;;;;;5033713;28;20603;-58
2021/12/18 12:55:29;;;;;;;11.53;8.30;;;7.30;99.90;;;;;;5034249;28;20287;-57
2021/12/18 12:58:01;;;;;;;12.10;9.43;;;7.40;99.90;;;;;;5033678;28;20642;-57
2021/12/18 13:00:53;;;;;;;11.20;8.77;;;7.40;99.90;;;;;;5033871;28;20564;-57
2021/12/18 13:03:32;;;;;;;10.60;8.30;;;7.40;99.90;;;;;;5033462;28;20230;-58
2021/12/18 13:06:11;;;;;;;10.60;8.60;;;7.50;99.90;;;;;;5033757;28;20569;-58
2021/12/18 13:08:41;;;;;;;13.17;8.60;;;7.60;99.90;;;;;;5033582;28;20206;-58
2021/12/18 13:11:14;;;;;;;11.60;9.00;;;7.60;99.90;;;;;;5033443;28;20210;-58
2021/12/18 13:13:43;;;;;;;10.97;8.07;;;7.70;99.90;;;;;;5033524;28;20230;-57
2021/12/18 13:16:13;;;;;;;13.03;9.30;;;7.60;99.90;;;;;;5033680;28;20206;-58
2021/12/18 13:18:42;;;;;;;11.07;8.30;;;7.50;99.90;;;;;;5033595;28;20330;-57
2021/12/18 13:21:11;;;;;;;11.47;8.57;;;7.50;99.90;;;;;;5033494;28;20235;-58
2021/12/18 13:23:55;;;;;;;10.63;8.83;;;7.50;99.90;;;;;;5033265;28;20291;-58
2021/12/18 13:26:27;;;;;;;11.23;9.27;;;7.60;99.90;;;;;;5033163;28;20210;-58
2021/12/18 13:28:59;;;;;;;13.07;9.70;;;7.60;99.90;;;;;;5033651;28;20671;-58